Noble, Missouri
Current Conditions -  °F | °C
As of 7:53 AM on Friday 19 Dec 2014 (Local Time) from KBPK Reporting Station
Haze Haze  
Wind Chill: 37°   Ceiling: 500
Heat Index: 37°   Visibility: 4mi
Dew Point: 36°   Wind: 3mph
Humidity: 96%   Direction: 110°ESE
Pressure: 30.24"   Gusts: NA
Location:  36.75°N, 92.57°W
Report Text: KBPK 191353Z AUTO 11003KT 4SM BR OVC005 03/02 A3024 RMK AO2 SLP247 T00280022
Loading
Personal Weather Stations






























Interactive Weather Map New forecast layout! Learn more

10-Day Weather Forecast

Advertisements
Track Severe Weather on mobile